Groton, CT (06340)

12:36 PM EST on January 27, 2015 (GMT -0500)
APRSWXNET Groton CT US | Change Station
CLOSE
Current Station
Personal Weather Station
Location: New London, CT
Elevation: 0 ft
Nearby Weather Stations
Active Advisory: Winter Storm Warning Active Notice: Public Information Statement

Elev 0 ft 41.35 °N, 72.08 °W | Updated 35 minutes ago

Snow
Snow
22 °F
Feels Like 10 °F
N
13
Wind Variable Wind from NW
Gusts 14.0 mph

Today
High -- | Low -- °F
--% Chance of Precip.
Yesterday
High -- | Low -- °F
Precip. -- in
7:04 AM 4:57 PM
First Quarter, 56% visible
Pressure 29.52 in
Visibility 0.8 miles
Clouds
Windchill 10 °F
Dew Point 22 °F
Humidity 99%
Rainfall 0.00 in
Snow Depth Not available.
UV Not available.
Pollen .10 out of 12
Air Quality Not available.
Flu Activity Not available.
SPECI KGON 271727Z AUTO 33012KT 3/4SM R05/3500V4500FT -SN BR VV018 M07/M09 A2952 RMK AO2 SNB04 P0000 T10671089 $

More Conditions Fewer Conditions

Pressure 29.52 in
Visibility 0.8 miles
Clouds
Windchill 10 °F
Dew Point 22 °F
Humidity 99%
Rainfall 0.00 in
Snow Depth Not available.
UV Not available.
Pollen .10 out of 12
Air Quality Not available.
Flu Activity Not available.
SPECI KGON 271727Z AUTO 33012KT 3/4SM R05/3500V4500FT -SN BR VV018 M07/M09 A2952 RMK AO2 SNB04 P0000 T10671089 $

More Conditions Fewer Conditions

10-Day Weather Forecast

Almanac

Astronomy

Jan. 27, 2015 Rise Set
Actual Time
Civil Twilight
Nautical Twilight
Astronomical Twilight
Moon
Length of Visible Light
Length of Day
Tomorrow will be .
, % of the Moon is Illuminated

Today's Extremes

State Highs State Lows

Community

WunderPhotos

Upload Photos

1,790,732 photos uploaded!

WunderBlogs® & News

Nearby

Air Quality

  Air Quality AQ Index Pollutant
Not available.

Snow Depth

Station Depth Elevation

Earthquake Activity

City Distance Mag. Time & Date
Minimum magnitude displayed is 2.5.

Coastal Water Temperatures

Place Temperature

Nearby Weather Stations